Heidelberg, Mississippi
Current Conditions -  °F | °C
As of 7:58 PM on Friday 19 Dec 2014 (Local Time) from KMEI Reporting Station
Light Rain Light Rain  
Wind Chill: 40°   Ceiling: 5000
Heat Index: 44°   Visibility: 7mi
Dew Point: 42°   Wind: 7mph
Humidity: 93%   Direction: 60°ENE
Pressure: 30.17"   Gusts: NA
Location:  31.89°N, 88.98°W
Report Text: KMEI 200158Z 06006KT 7SM -RA FEW007 OVC050 07/06 A3017 RMK AO2 SLP217 P0008 T00670056
Loading
Personal Weather Stations






























Interactive Weather Map New forecast layout! Learn more

10-Day Weather Forecast

Advertisements
Track Severe Weather on mobile